FW0972 Weather Reports


time (UTC)temp
C
wind
direction
speed
KPH
gust
KPH
rain 1hr
cm
rain 24hr
cm
rain mn
cm
humidity
%
barometer
mb
20200229101416 10 0 4.8 8.0 0.00 0.00 0.00 49 1017.0
20200229100416 10 0 4.8 6.4 0.00 0.00 0.00 49 1017.2
20200229095416 10 337 3.2 4.8 0.00 0.00 0.00 49 1017.3
20200229094416 10 337 1.6 3.2 0.00 0.00 0.00 52 1017.3
20200229093416 10 337 3.2 4.8 0.00 0.00 0.00 53 1017.4
20200229092419 10 337 1.6 3.2 0.00 0.00 0.00 53 1017.5
20200229091416 10 337 3.2 4.8 0.00 0.00 0.00 52 1017.5
20200229090416 10 337 3.2 3.2 0.00 0.00 0.00 49 1017.7
20200229085416 11 0.0 0.0 0.00 0.00 0.00 47 1017.9
20200229084416 11 337 1.6 1.6 0.00 0.00 0.00 47 1018.0
20200229083416 11 337 1.6 1.6 0.00 0.00 0.00 48 1018.2
20200229082415 10 337 1.6 1.6 0.00 0.00 0.00 48 1018.2
20200229081415 10 337 1.6 1.6 0.00 0.00 0.00 47 1018.2
20200229080415 10 337 1.6 3.2 0.00 0.00 0.00 47 1018.3
20200229075416 10 337 3.2 3.2 0.00 0.00 0.00 46 1018.3
20200229074416 10 337 3.2 4.8 0.00 0.00 0.00 46 1018.4
20200229073416 11 315 1.6 3.2 0.00 0.00 0.00 45 1018.5
20200229072416 11 0.0 1.6 0.00 0.00 0.00 44 1018.7
20200229071415 11 292 3.2 4.8 0.00 0.00 0.00 44 1018.6
20200229070416 11 315 1.6 3.2 0.00 0.00 0.00 43 1018.9
20200229065423 11 315 3.2 4.8 0.00 0.00 0.00 42 1018.9
20200229064416 11 270 1.6 3.2 0.00 0.00 0.00 42 1019.1
20200229063416 11 270 3.2 4.8 0.00 0.00 0.00 41 1018.9
20200229062416 12 292 4.8 6.4 0.00 0.00 0.00 41 1019.0
20200229061416 12 292 3.2 3.2 0.00 0.00 0.00 40 1019.0
20200229060416 12 292 1.6 3.2 0.00 0.00 0.00 39 1019.1
20200229055419 11 292 3.2 4.8 0.00 0.00 0.00 41 1018.9
20200229054416 11 247 1.6 3.2 0.00 0.00 0.00 42 1018.7
20200229053416 12 180 1.6 1.6 0.00 0.00 0.00 41 1018.8
20200229052416 12 180 1.6 3.2 0.00 0.00 0.00 42 1018.8
20200229051418 12 180 1.6 1.6 0.00 0.00 0.00 40 1018.9
20200229050416 13 0.0 1.6 0.00 0.00 0.00 39 1018.8
20200229045419 13 0.0 1.6 0.00 0.00 0.00 35 1018.9
20200229044421 14 180 1.6 3.2 0.00 0.00 0.00 34 1018.8
20200229043416 15 0.0 0.0 0.00 0.00 0.00 33 1018.8
20200229042417 16 180 1.6 3.2 0.00 0.00 0.00 30 1018.7
20200229041417 16 292 4.8 6.4 0.00 0.00 0.00 29 1018.6
20200229040445 17 292 1.6 1.6 0.00 0.00 0.00 29 1018.6
20200229035416 17 292 3.2 6.4 0.00 0.00 0.00 28 1018.4
20200229034416 17 292 3.2 6.4 0.00 0.00 0.00 28 1018.4
20200229033417 17 270 3.2 3.2 0.00 0.00 0.00 27 1018.3
20200229032416 17 292 3.2 4.8 0.00 0.00 0.00 28 1018.2
20200229031416 17 292 3.2 4.8 0.00 0.00 0.00 27 1018.1
20200229030418 18 292 4.8 6.4 0.00 0.00 0.00 27 1017.9
20200229025416 18 270 4.8 6.4 0.00 0.00 0.00 27 1017.9
20200229024417 18 270 3.2 4.8 0.00 0.00 0.00 26 1017.7
20200229023417 19 270 3.2 4.8 0.00 0.00 0.00 25 1017.7
20200229022417 20 270 3.2 4.8 0.00 0.00 0.00 25 1017.8
20200229021417 20 292 3.2 4.8 0.00 0.00 0.00 25 1017.7
20200229020421 21 292 3.2 4.8 0.00 0.00 0.00 24 1017.6
20200229015416 21 270 3.2 3.2 0.00 0.00 0.00 24 1017.6
20200229014417 21 270 3.2 3.2 0.00 0.00 0.00 22 1017.7
20200229013416 22 337 3.2 4.8 0.00 0.00 0.00 23 1017.7
20200229012420 23 337 1.6 3.2 0.00 0.00 0.00 21 1017.7
20200229011416 23 202 1.6 1.6 0.00 0.00 0.00 19 1017.8
20200229010416 24 202 1.6 3.2 0.00 0.00 0.00 18 1017.9
20200229005416 25 247 1.6 3.2 0.00 0.00 0.00 17 1017.9
20200229004416 25 247 3.2 3.2 0.00 0.00 0.00 16 1018.0
20200229003416 26 247 3.2 4.8 0.00 0.00 0.00 14 1018.0
20200229002416 26 225 3.2 6.4 0.00 0.00 0.00 13 1018.0
20200229001415 27 247 3.2 6.4 0.00 0.00 0.00 13 1018.0
20200229000415 27 247 6.4 9.7 0.00 0.00 0.00 13 1017.9
20200228235417 27 225 6.4 9.7 0.00 0.00 0.00 13 1017.7
20200228234415 27 247 4.8 8.0 0.00 0.00 0.00 13 1017.8
20200228233415 27 225 4.8 6.4 0.00 0.00 0.00 13 1017.7
20200228232416 27 225 3.2 4.8 0.00 0.00 0.00 12 1017.9
20200228231416 27 0.0 1.6 0.00 0.00 0.00 13 1017.9
20200228230416 27 0.0 1.6 0.00 0.00 0.00 12 1017.9
20200228225416 28 157 1.6 1.6 0.00 0.00 0.00 11 1018.0
20200228224416 28 0.0 1.6 0.00 0.00 0.00 11 1018.2
20200228223415 28 180 3.2 6.4 0.00 0.00 0.00 12 1018.2
20200228222422 28 225 1.6 3.2 0.00 0.00 0.00 12 1018.2
20200228221416 27 225 3.2 4.8 0.00 0.00 0.00 11 1018.3
20200228220416 27 0.0 1.6 0.00 0.00 0.00 11 1018.3
20200228215416 28 225 3.2 6.4 0.00 0.00 0.00 12 1018.3
20200228214415 28 202 1.6 4.8 0.00 0.00 0.00 12 1018.2
20200228213417 28 202 1.6 4.8 0.00 0.00 0.00 12 1017.8
20200228212419 27 112 1.6 1.6 0.00 0.00 0.00 13 1017.8
20200228211417 27 135 3.2 3.2 0.00 0.00 0.00 12 1017.9
20200228210420 28 67 6.4 8.0 0.00 0.00 0.00 13 1017.9
20200228205417 27 90 1.6 4.8 0.00 0.00 0.00 12 1018.1
20200228204418 28 0.0 3.2 0.00 0.00 0.00 14 1018.2
20200228203417 28 90 4.8 6.4 0.00 0.00 0.00 14 1018.1
20200228202418 27 202 3.2 4.8 0.00 0.00 0.00 15 1018.4
20200228201418 27 180 3.2 4.8 0.00 0.00 0.00 14 1018.6
20200228200420 27 180 6.4 9.7 0.00 0.00 0.00 15 1018.8
20200228195417 27 135 1.6 3.2 0.00 0.00 0.00 15 1018.9
20200228194417 26 157 1.6 3.2 0.00 0.00 0.00 14 1019.2
20200228193417 26 157 6.4 9.7 0.00 0.00 0.00 15 1019.3
20200228192418 26 112 4.8 6.4 0.00 0.00 0.00 15 1019.4
20200228191418 26 180 4.8 8.0 0.00 0.00 0.00 15 1019.5
20200228190417 26 202 3.2 6.4 0.00 0.00 0.00 15 1019.8
20200228185417 26 157 3.2 6.4 0.00 0.00 0.00 17 1020.0
20200228184419 25 157 4.8 6.4 0.00 0.00 0.00 16 1019.9
20200228183418 25 157 4.8 8.0 0.00 0.00 0.00 16 1020.0
20200228182424 25 135 4.8 8.0 0.00 0.00 0.00 16 1019.9
20200228181417 25 135 6.4 11.3 0.00 0.00 0.00 16 1020.2
20200228180421 25 135 4.8 8.0 0.00 0.00 0.00 16 1020.3
20200228175418 25 90 4.8 9.7 0.00 0.00 0.00 16 1020.5
20200228174417 24 22 3.2 4.8 0.00 0.00 0.00 15 1020.5
20200228173419 23 67 3.2 4.8 0.00 0.00 0.00 15 1020.5
20200228172418 24 0.0 1.6 0.00 0.00 0.00 13 1020.6
20200228171417 23 22 1.6 4.8 0.00 0.00 0.00 16 1020.5
20200228170417 22 0 4.8 4.8 0.00 0.00 0.00 17 1020.5
20200228165419 21 337 3.2 4.8 0.00 0.00 0.00 19 1020.4
20200228164419 21 0 6.4 8.0 0.00 0.00 0.00 21 1020.3
20200228163419 20 45 4.8 8.0 0.00 0.00 0.00 22 1020.4
20200228162423 20 0 3.2 6.4 0.00 0.00 0.00 21 1020.4
20200228161419 20 0 4.8 6.4 0.00 0.00 0.00 21 1020.4
20200228160426 20 0 8.0 12.9 0.00 0.00 0.00 21 1020.2
20200228155417 17 315 3.2 6.4 0.00 0.00 0.00 27 1020.2
20200228154417 16 315 4.8 6.4 0.00 0.00 0.00 30 1020.1
20200228153424 15 315 1.6 4.8 0.00 0.00 0.00 32 1020.1
20200228152424 15 337 3.2 4.8 0.00 0.00 0.00 31 1019.8
20200228151421 15 315 3.2 4.8 0.00 0.00 0.00 31 1019.8
20200228150417 15 0 4.8 8.0 0.00 0.00 0.00 31 1019.4
20200228145416 14 0 4.8 6.4 0.00 0.00 0.00 32 1019.4
20200228144418 13 337 3.2 4.8 0.00 0.00 0.00 33 1019.2
20200228143417 13 315 1.6 3.2 0.00 0.00 0.00 35 1019.2
20200228142416 12 337 1.6 3.2 0.00 0.00 0.00 36 1019.1
20200228141416 12 337 1.6 3.2 0.00 0.00 0.00 37 1019.3
20200228140416 12 315 3.2 4.8 0.00 0.00 0.00 37 1019.1
20200228135417 12 315 3.2 4.8 0.00 0.00 0.00 38 1018.9
20200228134416 12 337 1.6 3.2 0.00 0.00 0.00 38 1018.6
20200228133417 12 315 1.6 3.2 0.00 0.00 0.00 37 1018.6
20200228132416 12 337 3.2 4.8 0.00 0.00 0.00 37 1018.6
20200228131416 12 337 1.6 3.2 0.00 0.00 0.00 38 1018.6
20200228130416 12 0 3.2 4.8 0.00 0.00 0.00 38 1018.7
20200228125417 12 0 4.8 6.4 0.00 0.00 0.00 39 1018.7
20200228124416 11 337 1.6 3.2 0.00 0.00 0.00 40 1018.7
20200228123416 11 0 1.6 1.6 0.00 0.00 0.00 41 1018.7
20200228122416 11 0 1.6 3.2 0.00 0.00 0.00 41 1018.6
20200228121416 11 0.0 1.6 0.00 0.00 0.00 41 1018.6
20200228120416 11 0.0 1.6 0.00 0.00 0.00 40 1018.6
20200228115416 11 337 3.2 4.8 0.00 0.00 0.00 40 1018.5
20200228114416 12 337 1.6 1.6 0.00 0.00 0.00 38 1018.4
20200228113416 12 0.0 1.6 0.00 0.00 0.00 35 1018.3
20200228112416 11 337 3.2 3.2 0.00 0.00 0.00 38 1018.3
20200228111416 11 337 3.2 4.8 0.00 0.00 0.00 39 1018.2
20200228110416 11 337 3.2 4.8 0.00 0.00 0.00 39 1018.1
20200228105416 12 0 1.6 3.2 0.00 0.00 0.00 38 1018.0
20200228104416 12 0 1.6 3.2 0.00 0.00 0.00 37 1017.8
20200228103416 12 337 1.6 3.2 0.00 0.00 0.00 37 1017.8
20200228102416 12 337 3.2 4.8 0.00 0.00 0.00 37 1017.9